sensor_id;sensor_type;location;lat;lon;timestamp;temperature;humidity
52167;DHT22;38149;52.666;6.428;2022-09-27T05:58:09;9.40;99.90
52167;DHT22;38149;52.666;6.428;2022-09-27T06:00:37;9.20;99.90
52167;DHT22;38149;52.666;6.428;2022-09-27T06:03:04;9.20;99.90
52167;DHT22;38149;52.666;6.428;2022-09-27T06:05:34;9.20;99.90
52167;DHT22;38149;52.666;6.428;2022-09-27T06:08:04;9.10;99.90
52167;DHT22;38149;52.666;6.428;2022-09-27T06:10:32;9.10;99.90
52167;DHT22;38149;52.666;6.428;2022-09-27T06:13:05;9.10;99.90
52167;DHT22;38149;52.666;6.428;2022-09-27T06:15:34;9.10;99.90
52167;DHT22;38149;52.666;6.428;2022-09-27T06:18:12;9.10;99.90
52167;DHT22;38149;52.666;6.428;2022-09-27T06:20:40;9.10;99.90
52167;DHT22;38149;52.666;6.428;2022-09-27T06:23:15;9.10;99.90
52167;DHT22;38149;52.666;6.428;2022-09-27T06:25:45;9.10;99.90
52167;DHT22;38149;52.666;6.428;2022-09-27T06:28:12;9.10;99.90
52167;DHT22;38149;52.666;6.428;2022-09-27T06:30:43;9.10;99.90
52167;DHT22;38149;52.666;6.428;2022-09-27T06:33:12;9.20;99.90
52167;DHT22;38149;52.666;6.428;2022-09-27T06:35:40;9.20;99.90
52167;DHT22;38149;52.666;6.428;2022-09-27T06:38:14;9.20;99.90
52167;DHT22;38149;52.666;6.428;2022-09-27T06:40:42;9.20;99.90
52167;DHT22;38149;52.666;6.428;2022-09-27T06:43:13;9.20;99.90
52167;DHT22;38149;52.666;6.428;2022-09-27T06:45:40;9.30;99.90
52167;DHT22;38149;52.666;6.428;2022-09-27T06:48:09;9.30;99.90
52167;DHT22;38149;52.666;6.428;2022-09-27T06:50:39;9.70;99.90
52167;DHT22;38149;52.666;6.428;2022-09-27T06:53:10;9.40;99.90
52167;DHT22;38149;52.666;6.428;2022-09-27T06:55:36;9.50;99.90
52167;DHT22;38149;52.666;6.428;2022-09-27T06:58:03;9.50;99.90
52167;DHT22;38149;52.666;6.428;2022-09-27T07:00:49;9.50;99.90
52167;DHT22;38149;52.666;6.428;2022-09-27T07:03:17;9.70;99.90
52167;DHT22;38149;52.666;6.428;2022-09-27T07:50:22;11.10;99.90
52167;DHT22;38149;52.666;6.428;2022-09-27T07:52:49;11.40;99.90
52167;DHT22;38149;52.666;6.428;2022-09-27T07:55:17;11.20;99.90
52167;DHT22;38149;52.666;6.428;2022-09-27T08:00:15;11.30;99.90
52167;DHT22;38149;52.666;6.428;2022-09-27T08:02:43;11.50;99.90
52167;DHT22;38149;52.666;6.428;2022-09-27T08:05:10;11.40;99.90
52167;DHT22;38149;52.666;6.428;2022-09-27T08:07:37;12.10;99.90
52167;DHT22;38149;52.666;6.428;2022-09-27T08:10:05;11.60;99.90
52167;DHT22;38149;52.666;6.428;2022-09-27T08:12:31;11.40;99.90
52167;DHT22;38149;52.666;6.428;2022-09-27T08:14:57;11.80;99.90
52167;DHT22;38149;52.666;6.428;2022-09-27T08:17:27;11.60;99.90
52167;DHT22;38149;52.666;6.428;2022-09-27T08:19:53;11.80;99.90
52167;DHT22;38149;52.666;6.428;2022-09-27T08:27:17;11.50;99.90
52167;DHT22;38149;52.666;6.428;2022-09-27T08:29:45;11.00;99.90
52167;DHT22;38149;52.666;6.428;2022-09-27T08:39:35;11.50;99.90
52167;DHT22;38149;52.666;6.428;2022-09-27T08:57:56;11.60;99.90
52167;DHT22;38149;52.666;6.428;2022-09-27T09:00:24;11.90;99.90
52167;DHT22;38149;52.666;6.428;2022-09-27T09:02:50;11.60;99.90
52167;DHT22;38149;52.666;6.428;2022-09-27T09:05:48;11.70;99.90
52167;DHT22;38149;52.666;6.428;2022-09-27T09:08:40;12.30;99.90
52167;DHT22;38149;52.666;6.428;2022-09-27T09:11:31;11.70;99.90
52167;DHT22;38149;52.666;6.428;2022-09-27T09:26:10;12.20;99.90
52167;DHT22;38149;52.666;6.428;2022-09-27T09:37:13;11.70;99.90
52167;DHT22;38149;52.666;6.428;2022-09-27T09:40:31;11.70;99.90
52167;DHT22;38149;52.666;6.428;2022-09-27T09:59:39;11.40;99.90
52167;DHT22;38149;52.666;6.428;2022-09-27T10:04:52;11.60;99.90
52167;DHT22;38149;52.666;6.428;2022-09-27T10:09:50;11.50;99.90
52167;DHT22;38149;52.666;6.428;2022-09-27T10:12:18;11.80;99.90
52167;DHT22;38149;52.666;6.428;2022-09-27T10:14:48;11.50;99.90
52167;DHT22;38149;52.666;6.428;2022-09-27T10:19:45;11.30;99.90
52167;DHT22;38149;52.666;6.428;2022-09-27T10:24:57;11.40;99.90
52167;DHT22;38149;52.666;6.428;2022-09-27T10:27:26;11.80;99.90
52167;DHT22;38149;52.666;6.428;2022-09-27T10:29:57;11.90;99.90
52167;DHT22;38149;52.666;6.428;2022-09-27T10:32:30;11.90;99.90
52167;DHT22;38149;52.666;6.428;2022-09-27T11:41:24;11.40;99.90
52167;DHT22;38149;52.666;6.428;2022-09-27T11:44:33;11.70;99.90
52167;DHT22;38149;52.666;6.428;2022-09-27T11:52:44;11.70;99.90
52167;DHT22;38149;52.666;6.428;2022-09-27T12:07:03;11.50;99.90
52167;DHT22;38149;52.666;6.428;2022-09-27T12:09:39;11.80;99.90
52167;DHT22;38149;52.666;6.428;2022-09-27T12:14:58;11.70;99.90
52167;DHT22;38149;52.666;6.428;2022-09-27T12:17:32;11.70;99.90
52167;DHT22;38149;52.666;6.428;2022-09-27T17:06:02;11.10;99.90
52167;DHT22;38149;52.666;6.428;2022-09-27T17:08:30;11.10;99.90
52167;DHT22;38149;52.666;6.428;2022-09-27T17:10:56;11.50;99.90
52167;DHT22;38149;52.666;6.428;2022-09-27T17:37:53;10.70;99.90
52167;DHT22;38149;52.666;6.428;2022-09-27T17:40:19;10.80;99.90
52167;DHT22;38149;52.666;6.428;2022-09-27T17:42:45;10.80;99.90
52167;DHT22;38149;52.666;6.428;2022-09-27T17:45:11;10.70;99.90
52167;DHT22;38149;52.666;6.428;2022-09-27T17:47:36;10.80;99.90
52167;DHT22;38149;52.666;6.428;2022-09-27T17:50:21;10.80;99.90
52167;DHT22;38149;52.666;6.428;2022-09-27T17:52:53;11.10;99.90
52167;DHT22;38149;52.666;6.428;2022-09-27T17:55:20;10.70;99.90
52167;DHT22;38149;52.666;6.428;2022-09-27T17:57:47;10.70;99.90
52167;DHT22;38149;52.666;6.428;2022-09-27T18:12:32;10.60;99.90
52167;DHT22;38149;52.666;6.428;2022-09-27T18:15:02;10.80;99.90
52167;DHT22;38149;52.666;6.428;2022-09-27T18:29:50;10.60;99.90
52167;DHT22;38149;52.666;6.428;2022-09-27T18:37:13;10.60;99.90
52167;DHT22;38149;52.666;6.428;2022-09-27T22:53:10;10.10;99.90
52167;DHT22;38149;52.666;6.428;2022-09-27T22:55:37;10.20;99.90
52167;DHT22;38149;52.666;6.428;2022-09-27T22:58:03;10.50;99.90
52167;DHT22;38149;52.666;6.428;2022-09-27T23:00:28;10.00;99.90
52167;DHT22;38149;52.666;6.428;2022-09-27T23:02:55;10.20;99.90
52167;DHT22;38149;52.666;6.428;2022-09-27T23:05:22;9.90;99.90
52167;DHT22;38149;52.666;6.428;2022-09-27T23:10:18;10.20;99.90
52167;DHT22;38149;52.666;6.428;2022-09-27T23:12:45;10.30;99.90
52167;DHT22;38149;52.666;6.428;2022-09-27T23:49:48;10.10;99.90
